sensor_id;sensor_type;location;lat;lon;timestamp;pressure;altitude;pressure_sealevel;temperature
29701;BMP280;57917;51.380;-0.176;2022-10-31T00:03:52;101444.38;;;14.39
29701;BMP280;57917;51.380;-0.176;2022-10-31T00:09:53;101436.38;;;14.39
29701;BMP280;57917;51.380;-0.176;2022-10-31T00:15:45;101446.84;;;14.07
29701;BMP280;57917;51.380;-0.176;2022-10-31T00:21:51;101434.22;;;13.84
29701;BMP280;57917;51.380;-0.176;2022-10-31T00:27:41;101440.19;;;13.76
29701;BMP280;57917;51.380;-0.176;2022-10-31T00:33:28;101433.81;;;13.72
29701;BMP280;57917;51.380;-0.176;2022-10-31T00:39:15;101436.56;;;13.62
29701;BMP280;57917;51.380;-0.176;2022-10-31T00:45:03;101429.75;;;13.41
29701;BMP280;57917;51.380;-0.176;2022-10-31T00:50:53;101427.56;;;13.48
29701;BMP280;57917;51.380;-0.176;2022-10-31T00:56:47;101432.22;;;13.27
29701;BMP280;57917;51.380;-0.176;2022-10-31T01:02:34;101421.63;;;13.22
29701;BMP280;57917;51.380;-0.176;2022-10-31T01:08:21;101422.00;;;13.01
29701;BMP280;57917;51.380;-0.176;2022-10-31T01:14:08;101422.28;;;12.99
29701;BMP280;57917;51.380;-0.176;2022-10-31T01:19:57;101411.28;;;13.16
29701;BMP280;57917;51.380;-0.176;2022-10-31T01:25:46;101424.38;;;13.51
29701;BMP280;57917;51.380;-0.176;2022-10-31T01:31:37;101428.94;;;13.79
29701;BMP280;57917;51.380;-0.176;2022-10-31T01:37:24;101436.94;;;13.79
29701;BMP280;57917;51.380;-0.176;2022-10-31T01:43:14;101430.50;;;13.85
29701;BMP280;57917;51.380;-0.176;2022-10-31T01:49:08;101436.50;;;14.00
29701;BMP280;57917;51.380;-0.176;2022-10-31T02:01:06;101431.84;;;14.16
29701;BMP280;57917;51.380;-0.176;2022-10-31T02:07:01;101427.50;;;14.25
29701;BMP280;57917;51.380;-0.176;2022-10-31T02:12:53;101420.59;;;14.24
29701;BMP280;57917;51.380;-0.176;2022-10-31T02:18:41;101411.09;;;14.13
29701;BMP280;57917;51.380;-0.176;2022-10-31T02:36:52;101400.91;;;14.20
29701;BMP280;57917;51.380;-0.176;2022-10-31T02:42:49;101391.78;;;14.26
29701;BMP280;57917;51.380;-0.176;2022-10-31T02:48:39;101386.34;;;14.12
29701;BMP280;57917;51.380;-0.176;2022-10-31T02:54:28;101392.91;;;14.20
29701;BMP280;57917;51.380;-0.176;2022-10-31T03:00:15;101380.16;;;14.17
29701;BMP280;57917;51.380;-0.176;2022-10-31T03:12:16;101371.97;;;14.13
29701;BMP280;57917;51.380;-0.176;2022-10-31T03:18:26;101376.44;;;14.18
29701;BMP280;57917;51.380;-0.176;2022-10-31T03:24:15;101367.19;;;14.10
29701;BMP280;57917;51.380;-0.176;2022-10-31T03:30:04;101365.13;;;14.07
29701;BMP280;57917;51.380;-0.176;2022-10-31T03:36:03;101371.63;;;14.20
29701;BMP280;57917;51.380;-0.176;2022-10-31T03:41:56;101373.78;;;14.18
29701;BMP280;57917;51.380;-0.176;2022-10-31T03:47:48;101376.16;;;14.19
29701;BMP280;57917;51.380;-0.176;2022-10-31T03:53:44;101384.19;;;14.38
29701;BMP280;57917;51.380;-0.176;2022-10-31T03:59:41;101368.91;;;14.25
29701;BMP280;57917;51.380;-0.176;2022-10-31T04:05:30;101368.47;;;14.18
29701;BMP280;57917;51.380;-0.176;2022-10-31T04:11:23;101376.09;;;14.01
29701;BMP280;57917;51.380;-0.176;2022-10-31T04:17:45;101365.53;;;13.91
29701;BMP280;57917;51.380;-0.176;2022-10-31T04:23:35;101374.22;;;14.01
29701;BMP280;57917;51.380;-0.176;2022-10-31T04:29:32;101367.69;;;13.84
29701;BMP280;57917;51.380;-0.176;2022-10-31T04:35:19;101349.69;;;13.76
29701;BMP280;57917;51.380;-0.176;2022-10-31T04:41:06;101346.41;;;13.84
29701;BMP280;57917;51.380;-0.176;2022-10-31T04:47:17;101346.66;;;13.87
29701;BMP280;57917;51.380;-0.176;2022-10-31T04:53:06;101334.47;;;13.81
29701;BMP280;57917;51.380;-0.176;2022-10-31T04:59:02;101340.00;;;13.85
29701;BMP280;57917;51.380;-0.176;2022-10-31T05:05:00;101336.44;;;13.71
29701;BMP280;57917;51.380;-0.176;2022-10-31T05:10:47;101338.31;;;13.65
29701;BMP280;57917;51.380;-0.176;2022-10-31T05:16:33;101325.25;;;13.69
29701;BMP280;57917;51.380;-0.176;2022-10-31T05:22:46;101319.91;;;13.74
29701;BMP280;57917;51.380;-0.176;2022-10-31T05:28:34;101316.44;;;13.45
29701;BMP280;57917;51.380;-0.176;2022-10-31T05:34:22;101324.53;;;13.25
29701;BMP280;57917;51.380;-0.176;2022-10-31T05:40:31;101317.59;;;13.34
29701;BMP280;57917;51.380;-0.176;2022-10-31T05:46:18;101322.06;;;13.38
29701;BMP280;57917;51.380;-0.176;2022-10-31T05:52:24;101303.25;;;13.30
29701;BMP280;57917;51.380;-0.176;2022-10-31T05:58:19;101309.34;;;13.30
29701;BMP280;57917;51.380;-0.176;2022-10-31T06:04:19;101301.13;;;13.27
29701;BMP280;57917;51.380;-0.176;2022-10-31T06:10:07;101291.59;;;13.26
29701;BMP280;57917;51.380;-0.176;2022-10-31T06:15:57;101300.53;;;13.35
29701;BMP280;57917;51.380;-0.176;2022-10-31T06:21:50;101289.97;;;13.25
29701;BMP280;57917;51.380;-0.176;2022-10-31T06:27:37;101291.63;;;13.21
29701;BMP280;57917;51.380;-0.176;2022-10-31T06:33:33;101286.03;;;13.22
29701;BMP280;57917;51.380;-0.176;2022-10-31T06:39:22;101293.75;;;13.19
29701;BMP280;57917;51.380;-0.176;2022-10-31T06:45:09;101295.84;;;13.22
29701;BMP280;57917;51.380;-0.176;2022-10-31T06:51:27;101277.47;;;13.25
29701;BMP280;57917;51.380;-0.176;2022-10-31T06:57:15;101271.88;;;13.27
29701;BMP280;57917;51.380;-0.176;2022-10-31T07:03:12;101266.13;;;13.20
29701;BMP280;57917;51.380;-0.176;2022-10-31T07:09:00;101264.19;;;13.25
29701;BMP280;57917;51.380;-0.176;2022-10-31T07:14:48;101263.97;;;13.17
29701;BMP280;57917;51.380;-0.176;2022-10-31T07:20:36;101276.75;;;13.20
29701;BMP280;57917;51.380;-0.176;2022-10-31T07:26:23;101277.66;;;13.67
29701;BMP280;57917;51.380;-0.176;2022-10-31T07:32:11;101269.50;;;14.29
29701;BMP280;57917;51.380;-0.176;2022-10-31T07:38:08;101265.72;;;14.35
29701;BMP280;57917;51.380;-0.176;2022-10-31T07:43:55;101250.44;;;14.41
29701;BMP280;57917;51.380;-0.176;2022-10-31T07:50:06;101246.25;;;14.91
29701;BMP280;57917;51.380;-0.176;2022-10-31T07:56:16;101239.22;;;14.81
29701;BMP280;57917;51.380;-0.176;2022-10-31T08:02:03;101240.16;;;15.22
29701;BMP280;57917;51.380;-0.176;2022-10-31T08:08:10;101240.03;;;14.95
29701;BMP280;57917;51.380;-0.176;2022-10-31T08:13:57;101242.22;;;14.56
29701;BMP280;57917;51.380;-0.176;2022-10-31T08:19:44;101236.38;;;14.73
29701;BMP280;57917;51.380;-0.176;2022-10-31T08:25:36;101234.81;;;14.90
29701;BMP280;57917;51.380;-0.176;2022-10-31T08:31:27;101239.88;;;15.37
29701;BMP280;57917;51.380;-0.176;2022-10-31T08:37:38;101232.31;;;15.71
29701;BMP280;57917;51.380;-0.176;2022-10-31T08:43:28;101215.63;;;16.15
29701;BMP280;57917;51.380;-0.176;2022-10-31T08:49:15;101208.69;;;16.27
29701;BMP280;57917;51.380;-0.176;2022-10-31T08:55:03;101197.84;;;16.68
29701;BMP280;57917;51.380;-0.176;2022-10-31T09:01:08;101190.50;;;17.04
29701;BMP280;57917;51.380;-0.176;2022-10-31T09:06:55;101197.78;;;16.82
29701;BMP280;57917;51.380;-0.176;2022-10-31T09:13:11;101187.91;;;16.91
29701;BMP280;57917;51.380;-0.176;2022-10-31T09:19:17;101171.97;;;17.16
29701;BMP280;57917;51.380;-0.176;2022-10-31T09:25:09;101156.38;;;17.10
29701;BMP280;57917;51.380;-0.176;2022-10-31T09:31:31;101166.97;;;17.15
29701;BMP280;57917;51.380;-0.176;2022-10-31T09:37:27;101163.59;;;17.40
29701;BMP280;57917;51.380;-0.176;2022-10-31T09:55:16;101139.28;;;17.19
29701;BMP280;57917;51.380;-0.176;2022-10-31T10:01:09;101136.75;;;17.23
29701;BMP280;57917;51.380;-0.176;2022-10-31T10:07:14;101114.44;;;16.88
29701;BMP280;57917;51.380;-0.176;2022-10-31T10:25:43;101092.44;;;17.56
29701;BMP280;57917;51.380;-0.176;2022-10-31T10:31:38;101081.22;;;17.37
29701;BMP280;57917;51.380;-0.176;2022-10-31T10:37:37;101082.06;;;17.71
29701;BMP280;57917;51.380;-0.176;2022-10-31T10:49:45;101050.56;;;18.40
29701;BMP280;57917;51.380;-0.176;2022-10-31T11:01:28;101040.94;;;17.76
29701;BMP280;57917;51.380;-0.176;2022-10-31T11:07:16;101036.22;;;17.90
29701;BMP280;57917;51.380;-0.176;2022-10-31T11:13:21;101016.84;;;17.76
29701;BMP280;57917;51.380;-0.176;2022-10-31T11:19:19;101022.97;;;17.51
29701;BMP280;57917;51.380;-0.176;2022-10-31T11:25:25;101009.31;;;17.44
29701;BMP280;57917;51.380;-0.176;2022-10-31T11:31:15;100999.06;;;17.46
29701;BMP280;57917;51.380;-0.176;2022-10-31T11:37:12;100996.53;;;17.58
29701;BMP280;57917;51.380;-0.176;2022-10-31T11:43:04;100981.59;;;17.48
29701;BMP280;57917;51.380;-0.176;2022-10-31T11:48:54;100951.50;;;17.26
29701;BMP280;57917;51.380;-0.176;2022-10-31T11:54:53;100948.03;;;17.51
29701;BMP280;57917;51.380;-0.176;2022-10-31T12:00:49;100933.63;;;17.89
29701;BMP280;57917;51.380;-0.176;2022-10-31T12:06:42;100935.38;;;17.94
29701;BMP280;57917;51.380;-0.176;2022-10-31T12:37:32;100860.44;;;17.77
29701;BMP280;57917;51.380;-0.176;2022-10-31T12:49:24;100821.16;;;17.89
29701;BMP280;57917;51.380;-0.176;2022-10-31T13:02:03;100795.22;;;18.10
29701;BMP280;57917;51.380;-0.176;2022-10-31T13:14:26;100761.16;;;18.11
29701;BMP280;57917;51.380;-0.176;2022-10-31T13:20:25;100755.56;;;17.95
29701;BMP280;57917;51.380;-0.176;2022-10-31T13:32:34;100727.78;;;17.50
29701;BMP280;57917;51.380;-0.176;2022-10-31T13:38:35;100709.34;;;17.49
29701;BMP280;57917;51.380;-0.176;2022-10-31T13:44:26;100696.41;;;17.51
29701;BMP280;57917;51.380;-0.176;2022-10-31T13:50:23;100672.53;;;17.46
29701;BMP280;57917;51.380;-0.176;2022-10-31T13:56:25;100658.72;;;17.44
29701;BMP280;57917;51.380;-0.176;2022-10-31T14:02:15;100657.00;;;17.31
29701;BMP280;57917;51.380;-0.176;2022-10-31T14:08:05;100636.50;;;17.43
29701;BMP280;57917;51.380;-0.176;2022-10-31T14:13:54;100613.94;;;17.24
29701;BMP280;57917;51.380;-0.176;2022-10-31T14:19:42;100625.16;;;17.46
29701;BMP280;57917;51.380;-0.176;2022-10-31T14:25:36;100592.97;;;17.26
29701;BMP280;57917;51.380;-0.176;2022-10-31T14:31:37;100584.88;;;17.14
29701;BMP280;57917;51.380;-0.176;2022-10-31T14:38:10;100583.75;;;16.86
29701;BMP280;57917;51.380;-0.176;2022-10-31T14:50:48;100550.38;;;16.92
29701;BMP280;57917;51.380;-0.176;2022-10-31T14:57:03;100528.47;;;16.69
29701;BMP280;57917;51.380;-0.176;2022-10-31T15:03:18;100532.88;;;16.65
29701;BMP280;57917;51.380;-0.176;2022-10-31T15:09:31;100501.66;;;16.49
29701;BMP280;57917;51.380;-0.176;2022-10-31T15:15:27;100497.88;;;16.50
29701;BMP280;57917;51.380;-0.176;2022-10-31T15:21:21;100483.59;;;16.46
29701;BMP280;57917;51.380;-0.176;2022-10-31T15:27:26;100473.38;;;16.39
29701;BMP280;57917;51.380;-0.176;2022-10-31T15:33:28;100463.94;;;16.42
29701;BMP280;57917;51.380;-0.176;2022-10-31T15:39:23;100439.97;;;16.24
29701;BMP280;57917;51.380;-0.176;2022-10-31T15:50:58;100422.47;;;15.89
29701;BMP280;57917;51.380;-0.176;2022-10-31T15:56:53;100407.53;;;15.97
29701;BMP280;57917;51.380;-0.176;2022-10-31T16:02:40;100393.38;;;16.05
29701;BMP280;57917;51.380;-0.176;2022-10-31T16:14:28;100374.88;;;15.91
29701;BMP280;57917;51.380;-0.176;2022-10-31T16:20:28;100346.84;;;15.68
29701;BMP280;57917;51.380;-0.176;2022-10-31T16:26:25;100339.44;;;15.82
29701;BMP280;57917;51.380;-0.176;2022-10-31T16:33:33;100303.41;;;15.59
29701;BMP280;57917;51.380;-0.176;2022-10-31T16:39:10;100288.03;;;15.48
29701;BMP280;57917;51.380;-0.176;2022-10-31T16:45:25;100262.88;;;15.66
29701;BMP280;57917;51.380;-0.176;2022-10-31T16:51:19;100264.44;;;15.75
29701;BMP280;57917;51.380;-0.176;2022-10-31T16:57:06;100271.06;;;15.61
29701;BMP280;57917;51.380;-0.176;2022-10-31T17:02:56;100278.38;;;15.72
29701;BMP280;57917;51.380;-0.176;2022-10-31T17:09:20;100283.09;;;15.75
29701;BMP280;57917;51.380;-0.176;2022-10-31T17:15:58;100279.56;;;15.54
29701;BMP280;57917;51.380;-0.176;2022-10-31T17:21:45;100279.72;;;15.41
29701;BMP280;57917;51.380;-0.176;2022-10-31T17:27:41;100280.06;;;15.39
29701;BMP280;57917;51.380;-0.176;2022-10-31T17:33:33;100263.94;;;15.19
29701;BMP280;57917;51.380;-0.176;2022-10-31T17:47:42;100237.13;;;15.32
29701;BMP280;57917;51.380;-0.176;2022-10-31T18:01:28;100221.56;;;15.43
29701;BMP280;57917;51.380;-0.176;2022-10-31T18:07:21;100212.44;;;15.44
29701;BMP280;57917;51.380;-0.176;2022-10-31T18:13:27;100200.13;;;15.51
29701;BMP280;57917;51.380;-0.176;2022-10-31T18:19:25;100175.81;;;15.61
29701;BMP280;57917;51.380;-0.176;2022-10-31T18:25:29;100149.88;;;15.62
29701;BMP280;57917;51.380;-0.176;2022-10-31T18:31:33;100142.75;;;15.74
29701;BMP280;57917;51.380;-0.176;2022-10-31T18:37:35;100120.00;;;15.77
29701;BMP280;57917;51.380;-0.176;2022-10-31T18:43:51;100128.66;;;15.74
29701;BMP280;57917;51.380;-0.176;2022-10-31T18:49:51;100105.00;;;15.84
29701;BMP280;57917;51.380;-0.176;2022-10-31T18:55:49;100096.41;;;15.79
29701;BMP280;57917;51.380;-0.176;2022-10-31T19:01:36;100086.13;;;15.89
29701;BMP280;57917;51.380;-0.176;2022-10-31T19:07:23;100066.53;;;16.06
29701;BMP280;57917;51.380;-0.176;2022-10-31T19:13:12;100061.78;;;16.11
29701;BMP280;57917;51.380;-0.176;2022-10-31T19:19:02;100046.16;;;16.01
29701;BMP280;57917;51.380;-0.176;2022-10-31T19:24:53;100028.38;;;16.05
29701;BMP280;57917;51.380;-0.176;2022-10-31T19:30:51;100014.50;;;16.12
29701;BMP280;57917;51.380;-0.176;2022-10-31T19:36:40;100007.56;;;16.19
29701;BMP280;57917;51.380;-0.176;2022-10-31T19:42:30;99995.97;;;16.27
29701;BMP280;57917;51.380;-0.176;2022-10-31T19:48:17;99989.06;;;16.26
29701;BMP280;57917;51.380;-0.176;2022-10-31T19:54:06;99976.41;;;16.23
29701;BMP280;57917;51.380;-0.176;2022-10-31T20:00:01;99968.81;;;16.25
29701;BMP280;57917;51.380;-0.176;2022-10-31T20:05:57;99948.81;;;16.31
29701;BMP280;57917;51.380;-0.176;2022-10-31T20:11:53;99944.34;;;16.35
29701;BMP280;57917;51.380;-0.176;2022-10-31T20:18:15;99934.13;;;16.38
29701;BMP280;57917;51.380;-0.176;2022-10-31T20:24:17;99923.19;;;16.42
29701;BMP280;57917;51.380;-0.176;2022-10-31T20:30:16;99896.28;;;16.48
29701;BMP280;57917;51.380;-0.176;2022-10-31T20:36:29;99863.22;;;16.28
29701;BMP280;57917;51.380;-0.176;2022-10-31T20:42:26;99858.66;;;16.28
29701;BMP280;57917;51.380;-0.176;2022-10-31T20:48:16;99849.56;;;16.29
29701;BMP280;57917;51.380;-0.176;2022-10-31T20:54:05;99817.94;;;16.31
29701;BMP280;57917;51.380;-0.176;2022-10-31T20:59:52;99812.19;;;16.29
29701;BMP280;57917;51.380;-0.176;2022-10-31T21:05:40;99794.38;;;16.21
29701;BMP280;57917;51.380;-0.176;2022-10-31T21:11:27;99785.22;;;16.10
29701;BMP280;57917;51.380;-0.176;2022-10-31T21:17:14;99774.47;;;16.07
29701;BMP280;57917;51.380;-0.176;2022-10-31T21:23:01;99792.34;;;16.06
29701;BMP280;57917;51.380;-0.176;2022-10-31T21:28:53;99799.50;;;16.14
29701;BMP280;57917;51.380;-0.176;2022-10-31T21:34:52;99792.91;;;16.24
29701;BMP280;57917;51.380;-0.176;2022-10-31T21:40:52;99787.22;;;16.13
29701;BMP280;57917;51.380;-0.176;2022-10-31T21:47:01;99783.22;;;16.07
29701;BMP280;57917;51.380;-0.176;2022-10-31T21:53:11;99760.78;;;15.96
29701;BMP280;57917;51.380;-0.176;2022-10-31T21:59:30;99762.13;;;16.02
29701;BMP280;57917;51.380;-0.176;2022-10-31T22:05:25;99762.44;;;16.01
29701;BMP280;57917;51.380;-0.176;2022-10-31T22:11:40;99747.88;;;15.86
29701;BMP280;57917;51.380;-0.176;2022-10-31T22:17:51;99755.75;;;15.83
29701;BMP280;57917;51.380;-0.176;2022-10-31T22:24:06;99741.88;;;15.77
29701;BMP280;57917;51.380;-0.176;2022-10-31T22:29:59;99739.63;;;15.79
29701;BMP280;57917;51.380;-0.176;2022-10-31T22:35:50;99731.38;;;15.72
29701;BMP280;57917;51.380;-0.176;2022-10-31T22:41:47;99726.06;;;15.60
29701;BMP280;57917;51.380;-0.176;2022-10-31T22:47:36;99730.75;;;15.63
29701;BMP280;57917;51.380;-0.176;2022-10-31T22:53:27;99705.59;;;15.64
29701;BMP280;57917;51.380;-0.176;2022-10-31T22:59:15;99718.28;;;15.55
29701;BMP280;57917;51.380;-0.176;2022-10-31T23:05:04;99714.81;;;15.43
29701;BMP280;57917;51.380;-0.176;2022-10-31T23:10:52;99719.19;;;15.15
29701;BMP280;57917;51.380;-0.176;2022-10-31T23:16:54;99724.91;;;14.93
29701;BMP280;57917;51.380;-0.176;2022-10-31T23:22:44;99723.91;;;14.77
29701;BMP280;57917;51.380;-0.176;2022-10-31T23:28:31;99727.25;;;14.53
29701;BMP280;57917;51.380;-0.176;2022-10-31T23:34:22;99723.06;;;14.43
29701;BMP280;57917;51.380;-0.176;2022-10-31T23:40:11;99712.63;;;14.38
29701;BMP280;57917;51.380;-0.176;2022-10-31T23:45:58;99710.63;;;14.27
29701;BMP280;57917;51.380;-0.176;2022-10-31T23:51:45;99743.84;;;14.00
29701;BMP280;57917;51.380;-0.176;2022-10-31T23:57:34;99728.38;;;13.85
